sensor_id;sensor_type;location;lat;lon;timestamp;pressure;altitude;pressure_sealevel;temperature;humidity
42727;BME280;28372;56.832;60.658;2023-04-28T00:01:54;97153.50;;;15.96;45.12
42727;BME280;28372;56.832;60.658;2023-04-28T00:04:22;97145.00;;;15.93;45.08
42727;BME280;28372;56.832;60.658;2023-04-28T00:06:51;97150.84;;;15.92;45.34
42727;BME280;28372;56.832;60.658;2023-04-28T00:09:18;97155.13;;;15.93;45.43
42727;BME280;28372;56.832;60.658;2023-04-28T00:11:46;97158.00;;;15.86;45.13
42727;BME280;28372;56.832;60.658;2023-04-28T00:14:14;97164.59;;;15.88;45.54
42727;BME280;28372;56.832;60.658;2023-04-28T00:16:42;97169.00;;;15.82;45.99
42727;BME280;28372;56.832;60.658;2023-04-28T00:19:09;97164.38;;;15.79;45.73
42727;BME280;28372;56.832;60.658;2023-04-28T00:21:37;97157.00;;;15.76;46.13
42727;BME280;28372;56.832;60.658;2023-04-28T00:24:05;97162.13;;;15.74;45.93
42727;BME280;28372;56.832;60.658;2023-04-28T00:26:33;97155.19;;;15.69;46.50
42727;BME280;28372;56.832;60.658;2023-04-28T00:29:00;97164.59;;;15.68;46.56
42727;BME280;28372;56.832;60.658;2023-04-28T00:31:28;97169.34;;;15.64;46.55
42727;BME280;28372;56.832;60.658;2023-04-28T00:33:56;97164.97;;;15.67;46.74
42727;BME280;28372;56.832;60.658;2023-04-28T00:36:23;97171.13;;;15.71;47.45
42727;BME280;28372;56.832;60.658;2023-04-28T00:38:53;97163.03;;;15.67;47.45
42727;BME280;28372;56.832;60.658;2023-04-28T00:41:20;97168.75;;;15.73;47.40
42727;BME280;28372;56.832;60.658;2023-04-28T00:43:48;97158.28;;;15.71;47.37
42727;BME280;28372;56.832;60.658;2023-04-28T00:46:20;97177.53;;;15.84;47.61
42727;BME280;28372;56.832;60.658;2023-04-28T00:48:48;97180.38;;;15.77;47.07
42727;BME280;28372;56.832;60.658;2023-04-28T00:51:16;97181.56;;;15.76;47.60
42727;BME280;28372;56.832;60.658;2023-04-28T00:53:44;97180.38;;;15.77;46.93
42727;BME280;28372;56.832;60.658;2023-04-28T00:56:12;97179.25;;;15.74;47.30
42727;BME280;28372;56.832;60.658;2023-04-28T00:58:40;97187.75;;;15.76;47.38
42727;BME280;28372;56.832;60.658;2023-04-28T01:01:09;97178.81;;;15.76;47.49
42727;BME280;28372;56.832;60.658;2023-04-28T01:03:38;97190.81;;;15.82;47.75
42727;BME280;28372;56.832;60.658;2023-04-28T01:06:08;97191.22;;;15.81;47.83
42727;BME280;28372;56.832;60.658;2023-04-28T01:08:39;97196.28;;;15.82;47.32
42727;BME280;28372;56.832;60.658;2023-04-28T01:11:14;97189.28;;;15.81;47.41
42727;BME280;28372;56.832;60.658;2023-04-28T01:14:05;97196.19;;;15.86;47.75
42727;BME280;28372;56.832;60.658;2023-04-28T01:16:37;97209.75;;;15.89;47.81
42727;BME280;28372;56.832;60.658;2023-04-28T01:19:06;97207.34;;;15.91;47.95
42727;BME280;28372;56.832;60.658;2023-04-28T01:21:38;97204.31;;;15.89;47.69
42727;BME280;28372;56.832;60.658;2023-04-28T01:24:25;97204.22;;;15.93;47.50
42727;BME280;28372;56.832;60.658;2023-04-28T01:26:59;97208.47;;;15.94;47.38
42727;BME280;28372;56.832;60.658;2023-04-28T01:29:27;97213.19;;;15.93;47.45
42727;BME280;28372;56.832;60.658;2023-04-28T01:31:54;97220.00;;;16.02;47.39
42727;BME280;28372;56.832;60.658;2023-04-28T01:34:22;97215.16;;;16.09;47.53
42727;BME280;28372;56.832;60.658;2023-04-28T01:36:49;97218.94;;;16.16;47.22
42727;BME280;28372;56.832;60.658;2023-04-28T01:39:17;97223.84;;;16.24;47.61
42727;BME280;28372;56.832;60.658;2023-04-28T01:41:45;97224.84;;;16.31;46.77
42727;BME280;28372;56.832;60.658;2023-04-28T01:44:12;97230.56;;;16.36;46.98
42727;BME280;28372;56.832;60.658;2023-04-28T01:46:41;97234.31;;;16.42;46.53
42727;BME280;28372;56.832;60.658;2023-04-28T01:49:08;97233.84;;;16.48;46.11
42727;BME280;28372;56.832;60.658;2023-04-28T01:51:36;97232.22;;;16.50;45.94
42727;BME280;28372;56.832;60.658;2023-04-28T01:54:03;97239.50;;;16.57;45.44
42727;BME280;28372;56.832;60.658;2023-04-28T01:56:31;97243.34;;;16.59;45.77
42727;BME280;28372;56.832;60.658;2023-04-28T01:58:59;97254.53;;;16.65;45.46
42727;BME280;28372;56.832;60.658;2023-04-28T02:01:27;97239.75;;;16.63;45.76
42727;BME280;28372;56.832;60.658;2023-04-28T02:03:55;97254.00;;;16.70;45.58
42727;BME280;28372;56.832;60.658;2023-04-28T02:06:23;97260.81;;;16.78;45.52
42727;BME280;28372;56.832;60.658;2023-04-28T02:08:51;97256.81;;;16.83;45.34
42727;BME280;28372;56.832;60.658;2023-04-28T02:11:18;97253.59;;;16.88;45.11
42727;BME280;28372;56.832;60.658;2023-04-28T02:13:47;97261.28;;;16.93;45.53
42727;BME280;28372;56.832;60.658;2023-04-28T02:16:35;97255.72;;;16.97;45.15
42727;BME280;28372;56.832;60.658;2023-04-28T02:19:03;97265.72;;;17.04;45.35
42727;BME280;28372;56.832;60.658;2023-04-28T02:21:30;97271.13;;;17.07;44.98
42727;BME280;28372;56.832;60.658;2023-04-28T02:23:59;97279.56;;;17.13;45.15
42727;BME280;28372;56.832;60.658;2023-04-28T02:26:26;97281.34;;;17.20;45.36
42727;BME280;28372;56.832;60.658;2023-04-28T02:28:53;97282.00;;;17.24;45.23
42727;BME280;28372;56.832;60.658;2023-04-28T02:31:21;97285.44;;;17.28;45.05
42727;BME280;28372;56.832;60.658;2023-04-28T02:33:52;97292.78;;;17.31;44.90
42727;BME280;28372;56.832;60.658;2023-04-28T02:36:20;97297.41;;;17.34;44.82
42727;BME280;28372;56.832;60.658;2023-04-28T02:38:48;97299.34;;;17.34;45.13
42727;BME280;28372;56.832;60.658;2023-04-28T02:41:15;97304.72;;;17.37;44.63
42727;BME280;28372;56.832;60.658;2023-04-28T02:43:43;97310.88;;;17.41;44.50
42727;BME280;28372;56.832;60.658;2023-04-28T02:46:10;97313.94;;;17.43;44.83
42727;BME280;28372;56.832;60.658;2023-04-28T02:48:38;97312.31;;;17.46;44.40
42727;BME280;28372;56.832;60.658;2023-04-28T02:51:07;97315.47;;;17.44;44.77
42727;BME280;28372;56.832;60.658;2023-04-28T02:53:34;97324.13;;;17.43;45.19
42727;BME280;28372;56.832;60.658;2023-04-28T02:56:02;97322.94;;;17.44;45.29
42727;BME280;28372;56.832;60.658;2023-04-28T02:58:32;97323.69;;;17.44;44.63
42727;BME280;28372;56.832;60.658;2023-04-28T03:01:00;97328.72;;;17.46;45.05
42727;BME280;28372;56.832;60.658;2023-04-28T03:03:27;97337.78;;;17.43;45.27
42727;BME280;28372;56.832;60.658;2023-04-28T03:05:55;97332.31;;;17.43;45.04
42727;BME280;28372;56.832;60.658;2023-04-28T03:08:23;97338.53;;;17.43;45.05
42727;BME280;28372;56.832;60.658;2023-04-28T03:10:52;97346.41;;;17.41;45.20
42727;BME280;28372;56.832;60.658;2023-04-28T03:13:20;97346.75;;;17.43;45.38
42727;BME280;28372;56.832;60.658;2023-04-28T03:15:49;97344.38;;;17.45;45.27
42727;BME280;28372;56.832;60.658;2023-04-28T03:18:18;97341.63;;;17.45;45.77
42727;BME280;28372;56.832;60.658;2023-04-28T03:20:46;97349.72;;;17.49;45.92
42727;BME280;28372;56.832;60.658;2023-04-28T03:23:13;97354.00;;;17.50;45.84
42727;BME280;28372;56.832;60.658;2023-04-28T03:25:41;97354.38;;;17.52;46.13
42727;BME280;28372;56.832;60.658;2023-04-28T03:28:08;97351.28;;;17.50;46.48
42727;BME280;28372;56.832;60.658;2023-04-28T03:30:36;97362.91;;;17.54;46.49
42727;BME280;28372;56.832;60.658;2023-04-28T03:33:04;97365.97;;;17.56;46.47
42727;BME280;28372;56.832;60.658;2023-04-28T03:35:32;97369.47;;;17.57;47.08
42727;BME280;28372;56.832;60.658;2023-04-28T03:37:59;97345.22;;;17.42;48.18
42727;BME280;28372;56.832;60.658;2023-04-28T03:40:27;97377.06;;;17.66;48.59
42727;BME280;28372;56.832;60.658;2023-04-28T03:43:09;97378.63;;;17.67;48.83
42727;BME280;28372;56.832;60.658;2023-04-28T03:45:45;97386.06;;;17.66;48.18
42727;BME280;28372;56.832;60.658;2023-04-28T03:48:13;97382.97;;;17.64;49.02
42727;BME280;28372;56.832;60.658;2023-04-28T03:50:41;97389.19;;;17.64;49.09
42727;BME280;28372;56.832;60.658;2023-04-28T03:53:10;97403.97;;;17.67;49.34
42727;BME280;28372;56.832;60.658;2023-04-28T03:55:37;97392.28;;;17.67;48.39
42727;BME280;28372;56.832;60.658;2023-04-28T03:58:05;97392.59;;;17.69;49.02
42727;BME280;28372;56.832;60.658;2023-04-28T04:00:33;97403.56;;;17.69;49.21
42727;BME280;28372;56.832;60.658;2023-04-28T04:03:01;97402.47;;;17.66;48.61
42727;BME280;28372;56.832;60.658;2023-04-28T04:05:28;97407.50;;;17.68;49.06
42727;BME280;28372;56.832;60.658;2023-04-28T04:07:56;97401.50;;;17.73;51.33
42727;BME280;28372;56.832;60.658;2023-04-28T04:10:24;97405.78;;;17.74;51.11
42727;BME280;28372;56.832;60.658;2023-04-28T04:12:52;97413.47;;;17.79;49.87
42727;BME280;28372;56.832;60.658;2023-04-28T04:15:19;97416.66;;;17.77;49.34
42727;BME280;28372;56.832;60.658;2023-04-28T04:17:47;97415.44;;;17.78;48.82
42727;BME280;28372;56.832;60.658;2023-04-28T04:20:15;97418.16;;;17.78;49.17
42727;BME280;28372;56.832;60.658;2023-04-28T04:22:44;97423.97;;;17.80;48.32
42727;BME280;28372;56.832;60.658;2023-04-28T04:25:12;97424.41;;;17.79;48.27
42727;BME280;28372;56.832;60.658;2023-04-28T04:27:46;97430.13;;;17.85;48.42
42727;BME280;28372;56.832;60.658;2023-04-28T04:30:14;97431.00;;;17.81;49.01
42727;BME280;28372;56.832;60.658;2023-04-28T04:32:41;97442.69;;;17.82;48.81
42727;BME280;28372;56.832;60.658;2023-04-28T04:35:09;97442.38;;;17.80;48.19
42727;BME280;28372;56.832;60.658;2023-04-28T04:37:37;97448.19;;;17.82;48.66
42727;BME280;28372;56.832;60.658;2023-04-28T04:40:06;97456.44;;;17.78;49.75
42727;BME280;28372;56.832;60.658;2023-04-28T04:42:40;97456.31;;;17.69;49.79
42727;BME280;28372;56.832;60.658;2023-04-28T04:45:12;97466.19;;;17.63;52.90
42727;BME280;28372;56.832;60.658;2023-04-28T04:47:41;97465.09;;;17.60;50.66
42727;BME280;28372;56.832;60.658;2023-04-28T04:50:10;97473.06;;;17.55;50.69
42727;BME280;28372;56.832;60.658;2023-04-28T04:52:38;97463.47;;;17.46;50.71
42727;BME280;28372;56.832;60.658;2023-04-28T04:55:06;97484.72;;;17.39;50.26
42727;BME280;28372;56.832;60.658;2023-04-28T04:57:34;97480.75;;;17.23;50.76
42727;BME280;28372;56.832;60.658;2023-04-28T05:00:06;97488.09;;;17.26;50.99
42727;BME280;28372;56.832;60.658;2023-04-28T05:02:35;97488.94;;;17.23;51.57
42727;BME280;28372;56.832;60.658;2023-04-28T05:05:05;97497.50;;;17.25;52.07
42727;BME280;28372;56.832;60.658;2023-04-28T05:08:00;97492.69;;;17.13;51.68
42727;BME280;28372;56.832;60.658;2023-04-28T05:10:28;97507.53;;;17.12;52.52
42727;BME280;28372;56.832;60.658;2023-04-28T05:12:56;97519.66;;;17.11;51.72
42727;BME280;28372;56.832;60.658;2023-04-28T05:15:23;97509.56;;;17.08;52.01
42727;BME280;28372;56.832;60.658;2023-04-28T05:18:14;97536.63;;;17.02;53.39
42727;BME280;28372;56.832;60.658;2023-04-28T05:20:42;97529.41;;;16.92;53.29
42727;BME280;28372;56.832;60.658;2023-04-28T05:23:16;97548.38;;;16.79;52.43
42727;BME280;28372;56.832;60.658;2023-04-28T05:25:44;97541.25;;;16.61;51.08
42727;BME280;28372;56.832;60.658;2023-04-28T05:28:12;97540.94;;;16.36;51.34
42727;BME280;28372;56.832;60.658;2023-04-28T05:30:41;97563.47;;;16.16;50.24
42727;BME280;28372;56.832;60.658;2023-04-28T05:33:12;97572.53;;;16.09;48.85
42727;BME280;28372;56.832;60.658;2023-04-28T05:35:41;97579.28;;;16.01;48.74
42727;BME280;28372;56.832;60.658;2023-04-28T05:38:08;97572.03;;;15.91;47.98
42727;BME280;28372;56.832;60.658;2023-04-28T05:40:37;97589.47;;;15.97;48.02
42727;BME280;28372;56.832;60.658;2023-04-28T05:43:04;97599.47;;;15.80;48.24
42727;BME280;28372;56.832;60.658;2023-04-28T05:45:32;97601.44;;;15.76;48.08
42727;BME280;28372;56.832;60.658;2023-04-28T05:47:59;97611.56;;;15.75;48.11
42727;BME280;28372;56.832;60.658;2023-04-28T05:50:28;97612.22;;;15.56;48.67
42727;BME280;28372;56.832;60.658;2023-04-28T05:52:55;97605.13;;;15.62;48.17
42727;BME280;28372;56.832;60.658;2023-04-28T05:55:23;97616.88;;;15.55;48.92
42727;BME280;28372;56.832;60.658;2023-04-28T05:57:52;97625.03;;;15.59;49.12
42727;BME280;28372;56.832;60.658;2023-04-28T06:00:21;97612.00;;;15.43;49.28
42727;BME280;28372;56.832;60.658;2023-04-28T06:02:52;97625.94;;;15.49;49.13
42727;BME280;28372;56.832;60.658;2023-04-28T06:05:21;97633.66;;;15.54;49.51
42727;BME280;28372;56.832;60.658;2023-04-28T06:07:52;97622.94;;;15.39;49.18
42727;BME280;28372;56.832;60.658;2023-04-28T06:10:22;97631.41;;;15.45;49.13
42727;BME280;28372;56.832;60.658;2023-04-28T06:12:49;97639.47;;;15.56;49.01
42727;BME280;28372;56.832;60.658;2023-04-28T06:15:17;97641.03;;;15.57;48.68
42727;BME280;28372;56.832;60.658;2023-04-28T06:17:45;97635.31;;;15.44;48.42
42727;BME280;28372;56.832;60.658;2023-04-28T06:20:14;97644.69;;;15.43;48.27
42727;BME280;28372;56.832;60.658;2023-04-28T06:22:43;97651.53;;;15.20;47.58
42727;BME280;28372;56.832;60.658;2023-04-28T06:25:11;97659.38;;;15.15;48.07
42727;BME280;28372;56.832;60.658;2023-04-28T06:27:45;97664.78;;;15.22;48.33
42727;BME280;28372;56.832;60.658;2023-04-28T06:30:17;97674.78;;;15.32;48.92
42727;BME280;28372;56.832;60.658;2023-04-28T06:32:46;97674.38;;;15.34;48.00
42727;BME280;28372;56.832;60.658;2023-04-28T06:35:15;97687.47;;;15.46;47.06
42727;BME280;28372;56.832;60.658;2023-04-28T06:37:43;97691.06;;;15.39;47.74
42727;BME280;28372;56.832;60.658;2023-04-28T06:40:10;97690.28;;;15.39;47.82
42727;BME280;28372;56.832;60.658;2023-04-28T06:42:42;97700.06;;;15.33;47.67
42727;BME280;28372;56.832;60.658;2023-04-28T06:45:15;97694.78;;;15.18;48.20
42727;BME280;28372;56.832;60.658;2023-04-28T06:47:43;97705.25;;;15.20;48.71
42727;BME280;28372;56.832;60.658;2023-04-28T06:50:11;97692.66;;;14.95;49.33
42727;BME280;28372;56.832;60.658;2023-04-28T06:52:38;97712.03;;;15.01;49.49
42727;BME280;28372;56.832;60.658;2023-04-28T06:55:07;97713.13;;;15.11;49.47
42727;BME280;28372;56.832;60.658;2023-04-28T06:57:37;97703.84;;;15.08;49.24
42727;BME280;28372;56.832;60.658;2023-04-28T07:00:05;97706.25;;;14.99;49.29
42727;BME280;28372;56.832;60.658;2023-04-28T07:02:34;97712.91;;;14.94;49.10
42727;BME280;28372;56.832;60.658;2023-04-28T07:05:03;97715.91;;;15.03;49.25
42727;BME280;28372;56.832;60.658;2023-04-28T07:07:31;97722.97;;;14.97;49.00
42727;BME280;28372;56.832;60.658;2023-04-28T07:09:59;97714.78;;;15.01;48.92
42727;BME280;28372;56.832;60.658;2023-04-28T07:12:28;97717.94;;;14.96;48.61
42727;BME280;28372;56.832;60.658;2023-04-28T07:14:56;97722.97;;;14.97;48.87
42727;BME280;28372;56.832;60.658;2023-04-28T07:17:24;97728.44;;;14.94;48.66
42727;BME280;28372;56.832;60.658;2023-04-28T07:19:51;97733.91;;;14.94;48.69
42727;BME280;28372;56.832;60.658;2023-04-28T07:22:19;97728.56;;;14.79;48.55
42727;BME280;28372;56.832;60.658;2023-04-28T07:24:46;97734.84;;;14.72;48.50
42727;BME280;28372;56.832;60.658;2023-04-28T07:27:14;97740.69;;;14.71;48.55
42727;BME280;28372;56.832;60.658;2023-04-28T07:29:41;97735.66;;;14.69;47.58
42727;BME280;28372;56.832;60.658;2023-04-28T07:32:09;97738.78;;;14.68;47.67
42727;BME280;28372;56.832;60.658;2023-04-28T07:34:37;97740.69;;;14.71;47.75
42727;BME280;28372;56.832;60.658;2023-04-28T07:37:05;97736.03;;;14.71;46.85
42727;BME280;28372;56.832;60.658;2023-04-28T07:39:33;97745.00;;;14.61;47.88
42727;BME280;28372;56.832;60.658;2023-04-28T07:42:01;97748.94;;;14.56;47.98
42727;BME280;28372;56.832;60.658;2023-04-28T07:44:30;97754.75;;;14.62;47.93
42727;BME280;28372;56.832;60.658;2023-04-28T07:46:59;97759.03;;;14.63;47.77
42727;BME280;28372;56.832;60.658;2023-04-28T07:49:27;97757.53;;;14.48;47.88
42727;BME280;28372;56.832;60.658;2023-04-28T07:51:55;97757.19;;;14.42;48.25
42727;BME280;28372;56.832;60.658;2023-04-28T07:54:24;97754.78;;;14.51;48.24
42727;BME280;28372;56.832;60.658;2023-04-28T07:56:52;97752.81;;;14.59;47.63
42727;BME280;28372;56.832;60.658;2023-04-28T07:59:19;97766.41;;;14.66;47.17
42727;BME280;28372;56.832;60.658;2023-04-28T08:01:47;97757.94;;;14.46;47.68
42727;BME280;28372;56.832;60.658;2023-04-28T08:04:14;97753.63;;;14.52;47.21
42727;BME280;28372;56.832;60.658;2023-04-28T08:06:42;97764.09;;;14.57;47.23
42727;BME280;28372;56.832;60.658;2023-04-28T08:09:10;97765.34;;;14.42;47.61
42727;BME280;28372;56.832;60.658;2023-04-28T08:11:38;97757.56;;;14.44;47.56
42727;BME280;28372;56.832;60.658;2023-04-28T08:14:05;97768.44;;;14.44;48.92
42727;BME280;28372;56.832;60.658;2023-04-28T08:16:33;97772.72;;;14.42;48.69
42727;BME280;28372;56.832;60.658;2023-04-28T08:19:04;97761.03;;;14.48;48.17
42727;BME280;28372;56.832;60.658;2023-04-28T08:21:32;97777.47;;;14.27;48.36
42727;BME280;28372;56.832;60.658;2023-04-28T08:24:00;97776.66;;;14.33;49.26
42727;BME280;28372;56.832;60.658;2023-04-28T08:26:28;97785.25;;;14.28;48.67
42727;BME280;28372;56.832;60.658;2023-04-28T08:28:55;97783.69;;;14.31;47.86
42727;BME280;28372;56.832;60.658;2023-04-28T08:31:23;97783.28;;;14.32;49.11
42727;BME280;28372;56.832;60.658;2023-04-28T08:33:50;97784.00;;;14.40;49.39
42727;BME280;28372;56.832;60.658;2023-04-28T08:36:20;97792.13;;;14.47;48.89
42727;BME280;28372;56.832;60.658;2023-04-28T08:38:48;97790.56;;;14.53;48.80
42727;BME280;28372;56.832;60.658;2023-04-28T08:41:15;97809.19;;;14.62;48.03
42727;BME280;28372;56.832;60.658;2023-04-28T08:43:43;97792.06;;;14.62;47.43
42727;BME280;28372;56.832;60.658;2023-04-28T08:46:13;97801.78;;;14.63;47.59
42727;BME280;28372;56.832;60.658;2023-04-28T08:48:42;97804.91;;;14.65;47.16
42727;BME280;28372;56.832;60.658;2023-04-28T08:51:15;97801.38;;;14.64;47.39
42727;BME280;28372;56.832;60.658;2023-04-28T08:53:49;97801.03;;;14.66;46.94
42727;BME280;28372;56.832;60.658;2023-04-28T08:56:22;97811.63;;;15.05;46.36
42727;BME280;28372;56.832;60.658;2023-04-28T08:58:51;97810.25;;;14.79;46.68
42727;BME280;28372;56.832;60.658;2023-04-28T09:01:20;97822.75;;;14.73;46.50
42727;BME280;28372;56.832;60.658;2023-04-28T09:03:47;97818.47;;;14.72;46.92
42727;BME280;28372;56.832;60.658;2023-04-28T09:06:15;97810.38;;;14.57;47.94
42727;BME280;28372;56.832;60.658;2023-04-28T09:08:43;97811.56;;;14.49;49.21
42727;BME280;28372;56.832;60.658;2023-04-28T09:11:10;97808.06;;;14.49;48.71
42727;BME280;28372;56.832;60.658;2023-04-28T09:13:40;97820.09;;;14.55;48.61
42727;BME280;28372;56.832;60.658;2023-04-28T09:16:07;97813.47;;;14.56;48.18
42727;BME280;28372;56.832;60.658;2023-04-28T09:18:35;97822.78;;;14.66;47.05
42727;BME280;28372;56.832;60.658;2023-04-28T09:21:07;97828.59;;;14.68;47.51
42727;BME280;28372;56.832;60.658;2023-04-28T09:23:46;97828.56;;;14.75;47.79
42727;BME280;28372;56.832;60.658;2023-04-28T09:26:15;97826.31;;;14.55;46.76
42727;BME280;28372;56.832;60.658;2023-04-28T09:28:42;97835.63;;;14.54;46.53
42727;BME280;28372;56.832;60.658;2023-04-28T09:31:24;97835.56;;;14.72;46.43
42727;BME280;28372;56.832;60.658;2023-04-28T09:33:58;97841.88;;;14.51;47.24
42727;BME280;28372;56.832;60.658;2023-04-28T09:36:29;97834.50;;;14.52;47.67
42727;BME280;28372;56.832;60.658;2023-04-28T09:38:57;97833.34;;;14.49;46.86
42727;BME280;28372;56.832;60.658;2023-04-28T09:41:39;97835.59;;;14.69;46.89
42727;BME280;28372;56.832;60.658;2023-04-28T09:44:15;97840.25;;;14.68;46.69
42727;BME280;28372;56.832;60.658;2023-04-28T09:46:44;97827.78;;;14.75;46.23
42727;BME280;28372;56.832;60.658;2023-04-28T09:49:12;97840.97;;;14.80;46.40
42727;BME280;28372;56.832;60.658;2023-04-28T09:51:40;97835.97;;;14.71;45.91
42727;BME280;28372;56.832;60.658;2023-04-28T09:54:08;97821.66;;;14.56;45.53
42727;BME280;28372;56.832;60.658;2023-04-28T09:56:36;97832.03;;;14.76;45.97
42727;BME280;28372;56.832;60.658;2023-04-28T09:59:06;97836.66;;;14.86;45.89
42727;BME280;28372;56.832;60.658;2023-04-28T10:01:39;97834.19;;;15.10;45.54
42727;BME280;28372;56.832;60.658;2023-04-28T10:04:07;97832.97;;;15.14;44.67
42727;BME280;28372;56.832;60.658;2023-04-28T10:06:38;97835.63;;;15.21;44.48
42727;BME280;28372;56.832;60.658;2023-04-28T10:09:06;97839.84;;;15.33;44.28
42727;BME280;28372;56.832;60.658;2023-04-28T10:11:34;97844.78;;;15.46;43.96
42727;BME280;28372;56.832;60.658;2023-04-28T10:14:03;97837.75;;;15.48;43.31
42727;BME280;28372;56.832;60.658;2023-04-28T10:16:30;97855.66;;;15.49;43.45
42727;BME280;28372;56.832;60.658;2023-04-28T10:19:00;97854.78;;;15.59;43.97
42727;BME280;28372;56.832;60.658;2023-04-28T10:21:31;97868.78;;;15.62;43.18
42727;BME280;28372;56.832;60.658;2023-04-28T10:24:09;97861.28;;;15.73;43.56
42727;BME280;28372;56.832;60.658;2023-04-28T10:27:03;97863.91;;;15.87;43.09
42727;BME280;28372;56.832;60.658;2023-04-28T10:29:32;97848.81;;;15.75;42.60
42727;BME280;28372;56.832;60.658;2023-04-28T10:32:24;97858.03;;;15.89;42.24
42727;BME280;28372;56.832;60.658;2023-04-28T10:38:04;97849.78;;;15.96;41.76
42727;BME280;28372;56.832;60.658;2023-04-28T10:40:39;97846.72;;;15.90;41.09
42727;BME280;28372;56.832;60.658;2023-04-28T10:43:08;97849.81;;;15.92;41.06
42727;BME280;28372;56.832;60.658;2023-04-28T10:49:08;97833.34;;;16.03;41.09
42727;BME280;28372;56.832;60.658;2023-04-28T10:56:20;97828.78;;;16.27;40.11
42727;BME280;28372;56.832;60.658;2023-04-28T11:06:30;97827.34;;;16.47;40.28
42727;BME280;28372;56.832;60.658;2023-04-28T11:12:04;97827.22;;;16.57;39.15
42727;BME280;28372;56.832;60.658;2023-04-28T11:14:34;97832.34;;;16.55;39.10
42727;BME280;28372;56.832;60.658;2023-04-28T11:19:35;97820.63;;;16.55;38.52
42727;BME280;28372;56.832;60.658;2023-04-28T11:22:04;97814.94;;;16.42;38.93
42727;BME280;28372;56.832;60.658;2023-04-28T11:24:38;97826.72;;;16.35;38.45
42727;BME280;28372;56.832;60.658;2023-04-28T11:27:05;97825.94;;;16.38;38.61
42727;BME280;28372;56.832;60.658;2023-04-28T11:29:38;97835.19;;;16.44;38.99
42727;BME280;28372;56.832;60.658;2023-04-28T11:32:07;97832.50;;;16.41;38.85
42727;BME280;28372;56.832;60.658;2023-04-28T11:34:36;97833.63;;;16.43;38.88
42727;BME280;28372;56.832;60.658;2023-04-28T11:37:04;97831.22;;;16.49;38.88
42727;BME280;28372;56.832;60.658;2023-04-28T11:39:35;97831.84;;;16.60;38.42
42727;BME280;28372;56.832;60.658;2023-04-28T11:42:12;97827.41;;;16.74;38.38
42727;BME280;28372;56.832;60.658;2023-04-28T11:44:40;97815.16;;;16.55;38.51
42727;BME280;28372;56.832;60.658;2023-04-28T11:47:07;97825.94;;;16.66;38.61
42727;BME280;28372;56.832;60.658;2023-04-28T11:49:45;97832.03;;;16.77;38.87
42727;BME280;28372;56.832;60.658;2023-04-28T11:52:13;97822.03;;;16.67;38.44
42727;BME280;28372;56.832;60.658;2023-04-28T11:54:40;97819.72;;;16.65;38.40
42727;BME280;28372;56.832;60.658;2023-04-28T11:57:19;97825.84;;;16.73;38.70
42727;BME280;28372;56.832;60.658;2023-04-28T11:59:48;97824.78;;;16.67;38.43
42727;BME280;28372;56.832;60.658;2023-04-28T12:02:26;97823.88;;;16.73;38.62
42727;BME280;28372;56.832;60.658;2023-04-28T12:05:03;97818.59;;;16.63;38.10
42727;BME280;28372;56.832;60.658;2023-04-28T12:07:42;97824.66;;;16.74;38.77
42727;BME280;28372;56.832;60.658;2023-04-28T12:10:14;97820.44;;;16.69;38.55
42727;BME280;28372;56.832;60.658;2023-04-28T12:12:44;97809.75;;;16.51;37.92
42727;BME280;28372;56.832;60.658;2023-04-28T12:15:16;97815.78;;;16.39;38.28
42727;BME280;28372;56.832;60.658;2023-04-28T12:17:47;97806.09;;;16.34;38.10
42727;BME280;28372;56.832;60.658;2023-04-28T12:20:35;97812.81;;;16.57;38.41
42727;BME280;28372;56.832;60.658;2023-04-28T12:23:03;97814.66;;;16.33;38.03
42727;BME280;28372;56.832;60.658;2023-04-28T12:25:31;97810.81;;;16.30;38.20
42727;BME280;28372;56.832;60.658;2023-04-28T12:28:06;97804.16;;;16.31;38.70
42727;BME280;28372;56.832;60.658;2023-04-28T12:30:36;97794.44;;;16.30;38.51
42727;BME280;28372;56.832;60.658;2023-04-28T12:33:23;97803.31;;;16.38;38.44
42727;BME280;28372;56.832;60.658;2023-04-28T12:35:52;97795.94;;;16.00;38.91
42727;BME280;28372;56.832;60.658;2023-04-28T12:38:23;97795.59;;;15.98;38.92
42727;BME280;28372;56.832;60.658;2023-04-28T12:40:51;97795.59;;;15.98;38.89
42727;BME280;28372;56.832;60.658;2023-04-28T12:43:19;97784.31;;;15.96;38.77
42727;BME280;28372;56.832;60.658;2023-04-28T12:45:50;97794.94;;;15.87;38.97
42727;BME280;28372;56.832;60.658;2023-04-28T12:48:20;97792.66;;;15.82;39.04
42727;BME280;28372;56.832;60.658;2023-04-28T12:50:48;97795.38;;;15.85;39.05
42727;BME280;28372;56.832;60.658;2023-04-28T12:53:16;97795.03;;;15.76;38.77
42727;BME280;28372;56.832;60.658;2023-04-28T12:55:43;97789.28;;;15.67;39.17
42727;BME280;28372;56.832;60.658;2023-04-28T12:58:11;97788.59;;;15.55;39.43
42727;BME280;28372;56.832;60.658;2023-04-28T13:00:38;97790.66;;;15.44;39.82
42727;BME280;28372;56.832;60.658;2023-04-28T13:03:07;97790.59;;;15.51;39.74
42727;BME280;28372;56.832;60.658;2023-04-28T13:05:35;97784.75;;;15.53;39.69
42727;BME280;28372;56.832;60.658;2023-04-28T13:08:03;97790.56;;;15.55;39.49
42727;BME280;28372;56.832;60.658;2023-04-28T13:10:31;97776.97;;;15.51;39.69
42727;BME280;28372;56.832;60.658;2023-04-28T13:12:58;97784.75;;;15.53;39.62
42727;BME280;28372;56.832;60.658;2023-04-28T13:15:26;97778.53;;;15.52;39.65
42727;BME280;28372;56.832;60.658;2023-04-28T13:17:53;97779.66;;;15.55;39.65
42727;BME280;28372;56.832;60.658;2023-04-28T13:20:21;97775.38;;;15.54;39.46
42727;BME280;28372;56.832;60.658;2023-04-28T13:22:49;97778.97;;;15.47;39.46
42727;BME280;28372;56.832;60.658;2023-04-28T13:25:16;97777.03;;;15.48;39.60
42727;BME280;28372;56.832;60.658;2023-04-28T13:27:46;97786.75;;;15.49;39.65